バンダルスリブガワン の空港の天気 - METARとTAF

ブルネイ国際空港 ( WBSB / BWN ) - ブルネイ バンダルスリブガワン
飛行場実況気象(Metar)
観測時間01/18 17:30 BNT (01/18 09:30 UTC)
風向・風速北 2m/s
視程10km以上
天気現象
全天の4割程度の雲 雲底高度 430m
少しの雲 雲底高度 460m
全天の8割程度の雲 雲底高度 8230m
気温28℃
湿度89%
気圧1006hPa
METARWBSB 180930Z 36004KT 9999 SCT014 FEW015CB BKN270 28/26 Q1006 NOSIG
過去の天気等 Google飛行場航空写真 Wunderground天気予報

過去48時間のMETAR

飛行場予報(TAF)
発表時間: 1/18 13:00 BNT (1/18 05:00 UTC)
予報対象時間: 18日14時 BNT ~ 19日20時 BNT
風向・風速北東 4m/s
視程10km以上
少しの雲 雲底高度 430m
全天の8割程度の雲 雲底高度 4,270m
18日17時 BNT ~ 18日20時 BNT に一時的に
視程8,000m
天気現象弱いしゅう雨
18日22時 BNT ~ 18日24時 BNT に徐々に
風向・風速南 2m/s
少しの雲 雲底高度 150m
TAF WBSB 180500Z 1806/1912 04008KT 9999 FEW014 BKN140
TEMPO 1809/1812 8000 -SHRA
BECMG 1814/1816 17003KT FEW005